Terminal Aerodrome Forecast
Issued by NWS

Home | Current Version | Previous Version | Graphics & Text | Print | Product List | Glossary On
Versions: 1 2 3 4 5 6 7 8 9 10 11 12 13 14 15 16 17 18 19 20 21 22
000
FTUS43 KTOP 170520
TAFFOE
TAF
KFOE 170520Z 1706/1806 36008KT P6SM BKN050
     FM170700 36008KT 6SM -TSRA OVC030CB
     FM170900 36009KT P6SM -SHRA OVC020
     FM171200 36009KT P6SM OVC010
     FM171800 03011KT P6SM VCSH BKN020
     FM180000 10006KT P6SM BKN015=

USA.gov is the U.S. government's official web portal to all federal, state and local government web resources and services.